createdAt,value
2018-05-16T00:01:00.003Z,91.68
2018-05-16T00:02:00.047Z,91.78
2018-05-16T00:03:00.107Z,91.39
2018-05-16T00:04:00.166Z,91.20
2018-05-16T00:05:00.227Z,91.78
2018-05-16T00:06:00.288Z,91.11
2018-05-16T00:07:00.348Z,91.39
2018-05-16T00:08:00.412Z,91.97
2018-05-16T00:09:00.468Z,91.59
2018-05-16T00:10:00.530Z,91.78
2018-05-16T00:11:00.590Z,90.53
2018-05-16T00:12:00.650Z,90.53
2018-05-16T00:13:00.709Z,91.68
2018-05-16T00:14:00.771Z,91.02
2018-05-16T00:15:00.831Z,90.82
2018-05-16T00:16:00.891Z,90.34
2018-05-16T00:17:00.950Z,89.87
2018-05-16T00:18:01.013Z,90.06
2018-05-16T00:19:01.073Z,90.44
2018-05-16T00:20:01.132Z,90.34
2018-05-16T00:21:01.196Z,91.11
2018-05-16T00:22:01.254Z,91.20
2018-05-16T00:23:01.314Z,90.53
2018-05-16T00:24:01.387Z,90.34
2018-05-16T00:25:01.436Z,91.02
2018-05-16T00:26:01.495Z,90.25
2018-05-16T00:27:01.555Z,90.44
2018-05-16T00:28:01.632Z,90.34
2018-05-16T00:29:01.675Z,90.92
2018-05-16T00:30:01.735Z,91.20
2018-05-16T00:31:01.803Z,91.11
2018-05-16T00:32:01.861Z,91.20
2018-05-16T00:33:01.917Z,91.02
2018-05-16T00:34:01.982Z,90.63
2018-05-16T00:35:02.039Z,90.63
2018-05-16T00:36:02.098Z,90.82
2018-05-16T00:37:02.161Z,91.20
2018-05-16T00:38:02.220Z,91.30
2018-05-16T00:39:02.280Z,90.63
2018-05-16T00:40:02.340Z,91.20
2018-05-16T00:41:02.401Z,91.78
2018-05-16T00:42:02.460Z,92.35
2018-05-16T00:43:02.521Z,91.20
2018-05-16T00:44:02.581Z,91.30
2018-05-16T00:45:02.642Z,91.30
2018-05-16T00:46:02.702Z,91.97
2018-05-16T00:47:02.762Z,92.54
2018-05-16T00:48:02.822Z,92.83
2018-05-16T00:49:02.884Z,91.78
2018-05-16T00:50:02.943Z,92.25
2018-05-16T00:51:03.004Z,92.49
2018-05-16T00:52:03.066Z,91.73
2018-05-16T00:53:03.124Z,91.25
2018-05-16T00:54:03.185Z,90.58
2018-05-16T00:55:03.246Z,90.44
2018-05-16T00:56:03.305Z,90.34
2018-05-16T00:57:03.365Z,90.96
2018-05-16T00:58:03.426Z,91.25
2018-05-16T00:59:03.488Z,90.96
2018-05-16T01:00:03.547Z,90.96
2018-05-16T01:01:03.630Z,89.72
2018-05-16T01:02:03.669Z,89.58
2018-05-16T01:03:03.728Z,89.67
2018-05-16T01:04:03.790Z,89.19
2018-05-16T01:05:03.893Z,89.09
2018-05-16T01:06:03.910Z,89.38
2018-05-16T01:07:03.975Z,89.15
2018-05-16T01:08:04.033Z,89.34
2018-05-16T01:09:04.093Z,90.05
2018-05-16T01:10:04.153Z,90.82
2018-05-16T01:11:04.214Z,91.01
2018-05-16T01:12:04.274Z,91.83
2018-05-16T01:13:04.335Z,91.92
2018-05-16T01:14:04.395Z,92.30
2018-05-16T01:15:04.457Z,91.63
2018-05-16T01:16:04.520Z,91.73
2018-05-16T01:17:04.578Z,91.53
2018-05-16T01:18:04.737Z,91.92
2018-05-16T01:19:04.698Z,91.97
2018-05-16T01:20:04.760Z,91.83
2018-05-16T01:21:04.819Z,91.92
2018-05-16T01:22:04.946Z,92.54
2018-05-16T01:23:04.941Z,92.35
2018-05-16T01:24:05.001Z,93.45
2018-05-16T01:25:05.063Z,94.26
2018-05-16T01:26:05.123Z,93.79
2018-05-16T01:27:05.185Z,94.12
2018-05-16T01:28:05.244Z,93.45
2018-05-16T01:29:05.306Z,93.59
2018-05-16T01:30:05.366Z,94.21
2018-05-16T01:31:05.430Z,95.70
2018-05-16T01:32:05.488Z,95.22
2018-05-16T01:33:05.549Z,94.89
2018-05-16T01:34:05.610Z,95.36
2018-05-16T01:35:05.674Z,95.84
2018-05-16T01:36:05.733Z,96.61
2018-05-16T01:37:05.795Z,97.75
2018-05-16T01:38:05.853Z,97.85
2018-05-16T01:39:05.914Z,97.47
2018-05-16T01:40:06.171Z,97.66
2018-05-16T01:41:06.038Z,98.95
2018-05-16T01:42:06.100Z,99.76
2018-05-16T01:43:06.158Z,99.99
2018-05-16T01:44:06.219Z,99.99
2018-05-16T01:45:06.278Z,99.99
2018-05-16T01:46:06.342Z,99.99
2018-05-16T01:47:06.402Z,99.99
2018-05-16T01:48:06.462Z,99.99
2018-05-16T01:49:06.522Z,99.99
2018-05-16T01:50:06.583Z,99.99
2018-05-16T01:51:06.644Z,99.99
2018-05-16T01:52:06.704Z,99.99
2018-05-16T01:53:06.766Z,99.99
2018-05-16T01:54:06.826Z,99.99
2018-05-16T01:55:06.887Z,99.99
2018-05-16T01:56:06.948Z,99.99
2018-05-16T01:57:07.008Z,99.99
2018-05-16T01:58:07.070Z,99.99
2018-05-16T01:59:07.130Z,99.99
2018-05-16T02:00:07.190Z,99.99
2018-05-16T02:01:07.251Z,99.99
2018-05-16T02:02:07.311Z,99.99
2018-05-16T02:03:07.373Z,99.99
2018-05-16T02:04:07.437Z,99.99
2018-05-16T02:05:07.493Z,99.99
2018-05-16T02:06:07.554Z,99.99
2018-05-16T02:07:07.615Z,99.99
2018-05-16T02:08:07.673Z,99.99
2018-05-16T02:09:07.735Z,99.99
2018-05-16T02:10:07.795Z,99.99
2018-05-16T02:11:07.856Z,99.99
2018-05-16T02:12:07.917Z,99.99
2018-05-16T02:13:07.978Z,99.99
2018-05-16T02:14:08.038Z,99.99
2018-05-16T02:15:08.099Z,99.99
2018-05-16T02:16:08.159Z,99.99
2018-05-16T02:17:08.224Z,99.99
2018-05-16T02:18:08.280Z,99.99
2018-05-16T02:19:08.341Z,99.99
2018-05-16T02:20:08.401Z,99.99
2018-05-16T02:21:08.461Z,99.99
2018-05-16T02:22:08.522Z,99.99
2018-05-16T02:23:08.584Z,99.99
2018-05-16T02:24:08.643Z,99.99
2018-05-16T02:25:08.704Z,99.99
2018-05-16T02:26:08.765Z,99.99
2018-05-16T02:27:08.824Z,99.99
2018-05-16T02:28:08.885Z,99.99
2018-05-16T02:29:08.945Z,99.99
2018-05-16T02:30:09.007Z,99.99
2018-05-16T02:31:09.066Z,99.99
2018-05-16T02:32:09.130Z,99.99
2018-05-16T02:33:09.192Z,99.99
2018-05-16T02:34:09.249Z,99.99
2018-05-16T02:35:09.309Z,99.99
2018-05-16T02:36:09.369Z,99.99
2018-05-16T02:37:09.440Z,99.99
2018-05-16T02:38:09.494Z,99.99
2018-05-16T02:39:09.553Z,99.99
2018-05-16T02:40:09.611Z,99.99
2018-05-16T02:41:09.751Z,99.99
2018-05-16T02:42:09.733Z,99.99
2018-05-16T02:43:09.792Z,99.99
2018-05-16T02:44:09.854Z,99.99
2018-05-16T02:45:09.914Z,99.99
2018-05-16T02:46:09.975Z,99.99
2018-05-16T02:47:10.036Z,99.99
2018-05-16T02:48:10.094Z,99.99
2018-05-16T02:49:10.155Z,99.99
2018-05-16T02:50:10.214Z,99.99
2018-05-16T02:51:10.277Z,99.99
2018-05-16T02:52:10.337Z,99.99
2018-05-16T02:53:10.396Z,99.99
2018-05-16T02:54:10.708Z,99.99
2018-05-16T02:55:10.518Z,99.99
2018-05-16T02:56:10.578Z,99.99
2018-05-16T02:57:10.637Z,99.99
2018-05-16T02:58:10.707Z,99.99
2018-05-16T02:59:10.760Z,99.99
2018-05-16T03:00:10.819Z,99.99
2018-05-16T03:01:10.880Z,99.99
2018-05-16T03:02:10.940Z,99.99
2018-05-16T03:03:10.999Z,99.99
2018-05-16T03:04:11.066Z,99.99
2018-05-16T03:05:11.123Z,99.99
2018-05-16T03:06:11.182Z,99.99
2018-05-16T03:07:11.240Z,99.99
2018-05-16T03:08:11.303Z,99.99
2018-05-16T03:09:11.367Z,99.99
2018-05-16T03:10:11.421Z,99.99
2018-05-16T03:11:11.484Z,99.99
2018-05-16T03:12:11.543Z,99.99
2018-05-16T03:13:11.602Z,99.99
2018-05-16T03:14:11.663Z,99.99
2018-05-16T03:15:11.727Z,99.99
2018-05-16T03:16:11.784Z,99.99
2018-05-16T03:17:11.843Z,99.99
2018-05-16T03:18:11.903Z,99.99
2018-05-16T03:19:11.964Z,99.99
2018-05-16T03:20:12.024Z,99.99
2018-05-16T03:21:12.085Z,99.99
2018-05-16T03:22:12.146Z,99.99
2018-05-16T03:23:12.205Z,99.99
2018-05-16T03:24:12.265Z,99.99
2018-05-16T03:25:12.324Z,99.99
2018-05-16T03:26:12.385Z,99.99
2018-05-16T03:27:12.477Z,99.99
2018-05-16T03:28:12.505Z,99.99
2018-05-16T03:29:12.565Z,99.99
2018-05-16T03:30:12.641Z,99.99
2018-05-16T03:31:12.686Z,99.99
2018-05-16T03:32:12.746Z,99.99
2018-05-16T03:33:12.806Z,99.99
2018-05-16T03:34:12.866Z,99.99
2018-05-16T03:35:12.927Z,99.99
2018-05-16T03:36:12.986Z,99.99
2018-05-16T03:37:13.047Z,99.99
2018-05-16T03:38:13.107Z,99.99
2018-05-16T03:39:13.169Z,99.99
2018-05-16T03:40:13.225Z,99.99
2018-05-16T03:41:13.289Z,99.99
2018-05-16T03:42:13.345Z,99.99
2018-05-16T03:43:13.407Z,99.99
2018-05-16T03:44:13.466Z,99.99
2018-05-16T03:45:13.526Z,99.99
2018-05-16T03:46:13.587Z,99.99
2018-05-16T03:47:13.647Z,99.99
2018-05-16T03:48:13.706Z,99.99
2018-05-16T03:49:13.766Z,99.99
2018-05-16T03:50:13.828Z,99.99
2018-05-16T03:51:13.887Z,99.99
2018-05-16T03:52:13.946Z,99.99
2018-05-16T03:53:14.023Z,99.99
2018-05-16T03:54:14.452Z,99.99
2018-05-16T03:55:14.127Z,99.99
2018-05-16T03:56:14.185Z,99.99
2018-05-16T03:57:14.247Z,99.99
2018-05-16T03:58:14.336Z,99.99
2018-05-16T03:59:14.368Z,99.99
2018-05-16T04:00:14.464Z,99.99
2018-05-16T04:01:14.525Z,99.99
2018-05-16T04:02:14.815Z,99.99
2018-05-16T04:03:14.651Z,99.99
2018-05-16T04:04:14.697Z,99.99
2018-05-16T04:05:14.757Z,99.99
2018-05-16T04:06:14.821Z,99.99
2018-05-16T04:07:14.931Z,99.99
2018-05-16T04:08:14.940Z,99.99
2018-05-16T04:09:14.983Z,99.99
2018-05-16T04:10:15.060Z,99.99
2018-05-16T04:11:15.121Z,99.99
2018-05-16T04:12:15.188Z,99.99
2018-05-16T04:13:15.290Z,99.99
2018-05-16T04:14:15.301Z,99.99
2018-05-16T04:15:15.330Z,99.99
2018-05-16T04:16:15.390Z,99.99
2018-05-16T04:17:15.449Z,99.99
2018-05-16T04:18:15.510Z,99.99
2018-05-16T04:19:15.571Z,99.99
2018-05-16T04:20:15.630Z,99.99
2018-05-16T04:21:15.690Z,99.99
2018-05-16T04:22:15.751Z,99.99
2018-05-16T04:23:15.844Z,99.99
2018-05-16T04:24:15.953Z,99.99
2018-05-16T04:25:15.962Z,99.99
2018-05-16T04:26:16.025Z,99.99
2018-05-16T04:27:16.085Z,99.99
2018-05-16T04:28:16.141Z,99.99
2018-05-16T04:29:16.182Z,99.99
2018-05-16T04:30:16.235Z,99.99
2018-05-16T04:31:16.297Z,99.99
2018-05-16T04:32:16.352Z,99.99
2018-05-16T04:33:16.412Z,99.99
2018-05-16T04:34:16.473Z,99.99
2018-05-16T04:35:16.533Z,99.99
2018-05-16T04:36:16.593Z,99.99
2018-05-16T04:37:16.652Z,99.99
2018-05-16T04:38:16.713Z,99.99
2018-05-16T04:39:16.775Z,99.99
2018-05-16T04:40:16.832Z,99.99
2018-05-16T04:41:16.895Z,99.99
2018-05-16T04:42:16.970Z,99.99
2018-05-16T04:43:17.015Z,99.99
2018-05-16T04:44:17.073Z,99.99
2018-05-16T04:45:17.133Z,99.99
2018-05-16T04:46:17.193Z,99.99
2018-05-16T04:47:17.253Z,99.99
2018-05-16T04:48:17.312Z,99.99
2018-05-16T04:49:17.372Z,99.99
2018-05-16T04:50:17.434Z,99.99
2018-05-16T04:51:17.501Z,99.99
2018-05-16T04:52:17.554Z,99.99
2018-05-16T04:53:17.614Z,99.99
2018-05-16T04:54:17.675Z,99.99
2018-05-16T04:55:17.735Z,99.99
2018-05-16T04:56:17.794Z,99.99
2018-05-16T04:57:17.857Z,99.99
2018-05-16T04:58:17.914Z,99.99
2018-05-16T04:59:17.976Z,99.99
2018-05-16T05:00:18.036Z,99.99
2018-05-16T05:01:18.096Z,99.99
2018-05-16T05:02:18.156Z,99.99
2018-05-16T05:03:18.216Z,99.99
2018-05-16T05:04:18.276Z,99.99
2018-05-16T05:05:18.342Z,99.99
2018-05-16T05:06:18.402Z,99.99
2018-05-16T05:07:18.458Z,99.99
2018-05-16T05:08:18.517Z,99.99
2018-05-16T05:09:18.585Z,99.99
2018-05-16T05:10:18.640Z,99.99
2018-05-16T05:11:18.703Z,99.99
2018-05-16T05:12:18.785Z,99.99
2018-05-16T05:13:18.898Z,99.99
2018-05-16T05:14:18.882Z,99.99
2018-05-16T05:15:18.974Z,99.99
2018-05-16T05:16:19.087Z,99.99
2018-05-16T05:17:19.100Z,99.99
2018-05-16T05:18:19.179Z,99.99
2018-05-16T05:19:19.228Z,99.99
2018-05-16T05:20:19.251Z,99.99
2018-05-16T05:21:19.924Z,99.99
2018-05-16T05:22:19.845Z,99.99
2018-05-16T05:23:19.427Z,99.99
2018-05-16T05:24:19.487Z,99.99
2018-05-16T05:25:19.562Z,99.99
2018-05-16T05:26:19.608Z,99.99
2018-05-16T05:27:19.670Z,99.99
2018-05-16T05:28:19.825Z,99.99
2018-05-16T05:29:19.801Z,99.99
2018-05-16T05:30:19.949Z,99.99
2018-05-16T05:31:19.981Z,99.99
2018-05-16T05:32:19.971Z,99.99
2018-05-16T05:33:20.032Z,99.99
2018-05-16T05:34:20.092Z,99.99
2018-05-16T05:35:20.154Z,99.99
2018-05-16T05:36:20.221Z,99.99
2018-05-16T05:37:20.274Z,99.99
2018-05-16T05:38:20.335Z,99.99
2018-05-16T05:39:20.396Z,99.99
2018-05-16T05:40:20.457Z,99.99
2018-05-16T05:41:20.516Z,99.99
2018-05-16T05:42:20.578Z,99.99
2018-05-16T05:43:20.669Z,99.99
2018-05-16T05:44:20.698Z,99.99
2018-05-16T05:45:20.758Z,99.99
2018-05-16T05:46:20.819Z,99.99
2018-05-16T05:47:20.880Z,99.99
2018-05-16T05:48:20.940Z,99.99
2018-05-16T05:49:21.001Z,99.99
2018-05-16T05:50:21.062Z,99.99
2018-05-16T05:51:21.122Z,99.99
2018-05-16T05:52:21.183Z,99.99
2018-05-16T05:53:21.245Z,99.99
2018-05-16T05:54:21.304Z,99.99
2018-05-16T05:55:21.367Z,99.99
2018-05-16T05:56:21.425Z,99.99
2018-05-16T05:57:21.488Z,99.99
2018-05-16T05:58:21.549Z,99.99
2018-05-16T05:59:21.609Z,99.99
2018-05-16T06:00:21.671Z,99.99
2018-05-16T06:01:21.730Z,99.99
2018-05-16T06:02:21.791Z,99.99
2018-05-16T06:03:21.853Z,99.99
2018-05-16T06:04:21.913Z,99.99
2018-05-16T06:05:22.060Z,99.99
2018-05-16T06:06:22.035Z,99.99
2018-05-16T06:07:22.097Z,99.99
2018-05-16T06:08:22.158Z,99.99
2018-05-16T06:09:22.227Z,99.99
2018-05-16T06:10:22.280Z,99.99
2018-05-16T06:11:22.373Z,99.99
2018-05-16T06:12:22.405Z,99.99
2018-05-16T06:13:22.465Z,99.99
2018-05-16T06:14:22.557Z,99.99
2018-05-16T06:15:22.586Z,99.99
2018-05-16T06:16:22.647Z,99.99
2018-05-16T06:17:22.722Z,99.99
2018-05-16T06:18:22.772Z,99.99
2018-05-16T06:19:22.880Z,99.99
2018-05-16T06:20:22.921Z,99.99
2018-05-16T06:21:22.952Z,99.99
2018-05-16T06:22:23.014Z,99.99
2018-05-16T06:23:23.100Z,99.99
2018-05-16T06:24:23.139Z,99.99
2018-05-16T06:25:23.198Z,99.99
2018-05-16T06:26:23.305Z,99.99
2018-05-16T06:27:23.544Z,99.99
2018-05-16T06:28:23.382Z,99.99
2018-05-16T06:29:23.477Z,99.99
2018-05-16T06:30:23.602Z,99.99
2018-05-16T06:31:23.566Z,99.99
2018-05-16T06:32:23.626Z,99.77
2018-05-16T06:33:23.689Z,99.99
2018-05-16T06:34:23.750Z,99.99
2018-05-16T06:35:23.811Z,99.99
2018-05-16T06:36:23.872Z,99.99
2018-05-16T06:37:23.933Z,99.99
2018-05-16T06:38:23.996Z,99.96
2018-05-16T06:39:24.058Z,99.99
2018-05-16T06:40:24.118Z,99.99
2018-05-16T06:41:24.183Z,99.99
2018-05-16T06:42:24.241Z,99.00
2018-05-16T06:43:24.303Z,97.09
2018-05-16T06:44:24.418Z,96.32
2018-05-16T06:45:24.425Z,96.42
2018-05-16T06:46:24.487Z,95.56
2018-05-16T06:47:24.550Z,95.70
2018-05-16T06:48:24.608Z,95.79
2018-05-16T06:49:24.671Z,94.26
2018-05-16T06:50:24.733Z,95.41
2018-05-16T06:51:24.794Z,94.55
2018-05-16T06:52:24.856Z,93.49
2018-05-16T06:53:24.919Z,91.29
2018-05-16T06:54:24.978Z,92.25
2018-05-16T06:55:25.041Z,92.82
2018-05-16T06:56:25.135Z,93.88
2018-05-16T06:57:25.166Z,94.74
2018-05-16T06:58:25.225Z,93.63
2018-05-16T06:59:25.298Z,92.73
2018-05-16T07:00:25.347Z,92.15
2018-05-16T07:01:25.409Z,91.86
2018-05-16T07:02:25.472Z,93.35
2018-05-16T07:03:25.532Z,93.44
2018-05-16T07:04:25.593Z,93.26
2018-05-16T07:05:25.656Z,92.01
2018-05-16T07:06:25.717Z,92.68
2018-05-16T07:07:25.780Z,91.34
2018-05-16T07:08:25.840Z,91.14
2018-05-16T07:09:25.923Z,91.72
2018-05-16T07:10:25.984Z,90.95
2018-05-16T07:11:26.027Z,91.05
2018-05-16T07:12:26.112Z,91.34
2018-05-16T07:13:26.164Z,90.57
2018-05-16T07:14:26.214Z,89.90
2018-05-16T07:15:26.277Z,88.37
2018-05-16T07:16:26.368Z,88.27
2018-05-16T07:17:26.430Z,88.65
2018-05-16T07:18:26.476Z,89.04
2018-05-16T07:19:26.522Z,88.27
2018-05-16T07:20:27.210Z,87.70
2018-05-16T07:21:26.645Z,87.98
2018-05-16T07:22:27.113Z,88.12
2018-05-16T07:23:27.233Z,87.88
2018-05-16T07:24:26.831Z,87.70
2018-05-16T07:25:27.402Z,88.08
2018-05-16T07:26:26.976Z,88.89
2018-05-16T07:27:27.018Z,87.55
2018-05-16T07:28:27.097Z,87.64
2018-05-16T07:29:27.195Z,88.22
2018-05-16T07:30:27.223Z,88.22
2018-05-16T07:31:27.267Z,88.41
2018-05-16T07:32:27.336Z,87.93
2018-05-16T07:33:27.389Z,89.27
2018-05-16T07:34:27.452Z,88.12
2018-05-16T07:35:27.515Z,87.55
2018-05-16T07:36:27.576Z,86.74
2018-05-16T07:37:27.639Z,86.54
2018-05-16T07:38:27.703Z,87.12
2018-05-16T07:39:27.763Z,87.07
2018-05-16T07:40:27.825Z,86.01
2018-05-16T07:41:27.886Z,86.11
2018-05-16T07:42:27.950Z,85.63
2018-05-16T07:43:28.020Z,86.11
2018-05-16T07:44:28.075Z,84.86
2018-05-16T07:45:28.135Z,85.53
2018-05-16T07:46:28.198Z,85.34
2018-05-16T07:47:28.261Z,84.95
2018-05-16T07:48:28.323Z,84.86
2018-05-16T07:49:28.383Z,83.61
2018-05-16T07:50:28.447Z,83.75
2018-05-16T07:51:28.510Z,83.94
2018-05-16T07:52:28.571Z,83.94
2018-05-16T07:53:28.633Z,84.23
2018-05-16T07:54:28.695Z,84.04
2018-05-16T07:55:28.760Z,83.56
2018-05-16T07:56:28.825Z,84.04
2018-05-16T07:57:28.883Z,84.14
2018-05-16T07:58:29.281Z,84.71
2018-05-16T07:59:29.347Z,84.33
2018-05-16T08:00:29.069Z,83.85
2018-05-16T08:01:29.145Z,84.04
2018-05-16T08:02:29.196Z,84.23
2018-05-16T08:03:29.259Z,84.04
2018-05-16T08:04:29.319Z,84.23
2018-05-16T08:05:29.384Z,83.56
2018-05-16T08:06:29.454Z,82.98
2018-05-16T08:07:29.511Z,81.84
2018-05-16T08:08:29.570Z,82.31
2018-05-16T08:09:29.632Z,82.79
2018-05-16T08:10:29.695Z,83.27
2018-05-16T08:11:29.758Z,83.18
2018-05-16T08:12:29.823Z,83.56
2018-05-16T08:13:29.884Z,83.94
2018-05-16T08:14:29.949Z,82.51
2018-05-16T08:15:30.010Z,82.98
2018-05-16T08:16:30.071Z,82.89
2018-05-16T08:17:30.142Z,82.41
2018-05-16T08:18:30.195Z,80.30
2018-05-16T08:19:30.258Z,80.78
2018-05-16T08:20:30.319Z,80.34
2018-05-16T08:21:30.389Z,78.90
2018-05-16T08:22:30.446Z,77.36
2018-05-16T08:23:30.508Z,77.84
2018-05-16T08:24:30.572Z,78.23
2018-05-16T08:25:30.633Z,78.42
2018-05-16T08:26:30.696Z,78.52
2018-05-16T08:27:30.758Z,78.52
2018-05-16T08:28:30.820Z,78.99
2018-05-16T08:29:30.889Z,79.67
2018-05-16T08:30:30.947Z,80.15
2018-05-16T08:31:31.016Z,79.19
2018-05-16T08:32:31.071Z,78.90
2018-05-16T08:33:31.135Z,78.70
2018-05-16T08:34:31.197Z,78.42
2018-05-16T08:35:31.261Z,78.70
2018-05-16T08:36:31.321Z,78.90
2018-05-16T08:37:37.652Z,78.80
2018-05-16T08:38:31.448Z,79.57
2018-05-16T08:39:31.511Z,79.86
2018-05-16T08:40:31.572Z,79.86
2018-05-16T08:41:31.637Z,79.28
2018-05-16T08:42:31.699Z,79.13
2018-05-16T08:43:31.763Z,78.17
2018-05-16T08:44:31.827Z,76.54
2018-05-16T08:45:31.888Z,76.06
2018-05-16T08:46:32.004Z,76.34
2018-05-16T08:47:32.020Z,75.90
2018-05-16T08:48:32.078Z,75.42
2018-05-16T08:49:32.140Z,75.71
2018-05-16T08:50:32.204Z,75.96
2018-05-16T08:51:32.267Z,76.57
2018-05-16T08:52:32.377Z,76.77
2018-05-16T08:53:32.443Z,76.57
2018-05-16T08:54:32.494Z,75.29
2018-05-16T08:55:32.868Z,75.87
2018-05-16T08:56:32.584Z,76.34
2018-05-16T08:57:32.648Z,76.44
2018-05-16T08:58:32.716Z,76.54
2018-05-16T08:59:32.777Z,76.44
2018-05-16T09:00:32.840Z,76.92
2018-05-16T09:01:32.902Z,76.44
2018-05-16T09:02:32.965Z,76.64
2018-05-16T09:03:33.030Z,76.67
2018-05-16T09:04:33.093Z,75.62
2018-05-16T09:05:33.157Z,75.90
2018-05-16T09:06:33.220Z,76.29
2018-05-16T09:07:33.293Z,75.32
2018-05-16T09:08:33.348Z,74.46
2018-05-16T09:09:33.411Z,73.63
2018-05-16T09:10:33.475Z,73.06
2018-05-16T09:11:33.538Z,73.15
2018-05-16T09:12:33.602Z,72.58
2018-05-16T09:13:33.670Z,72.71
2018-05-16T09:14:33.732Z,71.42
2018-05-16T09:15:33.793Z,71.17
2018-05-16T09:16:34.299Z,71.36
2018-05-16T09:17:33.923Z,72.23
2018-05-16T09:18:33.987Z,71.84
2018-05-16T09:19:34.051Z,71.26
2018-05-16T09:20:34.115Z,70.98
2018-05-16T09:21:34.180Z,71.59
2018-05-16T09:22:34.246Z,70.15
2018-05-16T09:23:34.326Z,69.85
2018-05-16T09:24:34.375Z,70.53
2018-05-16T09:25:34.441Z,70.15
2018-05-16T09:26:34.505Z,70.92
2018-05-16T09:27:34.572Z,70.24
2018-05-16T09:28:34.637Z,70.43
2018-05-16T09:29:34.702Z,70.53
2018-05-16T09:30:34.769Z,70.53
2018-05-16T09:31:34.836Z,69.76
2018-05-16T09:32:34.908Z,69.95
2018-05-16T09:33:34.964Z,68.90
2018-05-16T09:34:35.030Z,69.38
2018-05-16T09:35:35.096Z,69.95
2018-05-16T09:36:35.196Z,69.82
2018-05-16T09:37:35.228Z,70.92
2018-05-16T09:38:35.293Z,70.34
2018-05-16T09:39:35.360Z,70.15
2018-05-16T09:40:35.424Z,70.15
2018-05-16T09:41:35.490Z,69.95
2018-05-16T09:42:35.706Z,70.50
2018-05-16T09:43:35.685Z,70.88
2018-05-16T09:44:35.687Z,70.01
2018-05-16T09:45:35.797Z,71.20
2018-05-16T09:46:35.817Z,70.24
2018-05-16T09:47:35.885Z,70.30
2018-05-16T09:48:35.949Z,71.33
2018-05-16T09:49:36.015Z,72.03
2018-05-16T09:50:36.079Z,72.32
2018-05-16T09:51:36.387Z,71.65
2018-05-16T09:52:36.211Z,70.24
2018-05-16T09:53:36.276Z,70.05
2018-05-16T09:54:36.342Z,69.67
2018-05-16T09:55:37.009Z,69.38
2018-05-16T09:56:36.475Z,69.28
2018-05-16T09:57:36.540Z,69.76
2018-05-16T09:58:36.605Z,69.70
2018-05-16T09:59:36.674Z,69.60
2018-05-16T10:00:36.736Z,69.89
2018-05-16T10:01:37.370Z,69.02
2018-05-16T10:02:37.526Z,68.77
2018-05-16T10:03:36.960Z,68.06
2018-05-16T10:04:37.001Z,68.93
2018-05-16T10:05:37.067Z,67.71
2018-05-16T10:06:37.133Z,67.61
2018-05-16T10:07:37.199Z,68.10
2018-05-16T10:08:37.264Z,67.26
2018-05-16T10:09:37.381Z,67.74
2018-05-16T10:10:37.400Z,67.07
2018-05-16T10:11:37.468Z,66.30
2018-05-16T10:12:37.532Z,66.49
2018-05-16T10:13:37.600Z,66.59
2018-05-16T10:14:37.669Z,65.91
2018-05-16T10:15:37.736Z,66.52
2018-05-16T10:16:37.802Z,66.75
2018-05-16T10:17:37.874Z,67.83
2018-05-16T10:18:37.938Z,69.28
2018-05-16T10:19:38.008Z,69.38
2018-05-16T10:20:38.072Z,69.67
2018-05-16T10:21:38.140Z,70.09
2018-05-16T10:22:38.208Z,68.93
2018-05-16T10:23:38.364Z,67.81
2018-05-16T10:24:38.341Z,66.33
2018-05-16T10:25:38.410Z,64.59
2018-05-16T10:26:39.297Z,63.57
2018-05-16T10:27:38.545Z,63.57
2018-05-16T10:28:38.614Z,61.38
2018-05-16T10:29:38.681Z,65.20
2018-05-16T10:30:38.749Z,66.33
2018-05-16T10:31:38.818Z,67.19
2018-05-16T10:32:38.885Z,66.59
2018-05-16T10:33:38.953Z,64.92
2018-05-16T10:34:39.041Z,61.61
2018-05-16T10:35:39.092Z,61.90
2018-05-16T10:36:39.156Z,63.15
2018-05-16T10:37:39.229Z,62.79
2018-05-16T10:38:39.295Z,61.93
2018-05-16T10:39:39.366Z,62.02
2018-05-16T10:40:39.437Z,61.51
2018-05-16T10:41:39.500Z,59.77
2018-05-16T10:42:39.569Z,59.93
2018-05-16T10:43:39.640Z,61.47
2018-05-16T10:44:39.722Z,61.25
2018-05-16T10:45:39.776Z,61.06
2018-05-16T10:46:39.845Z,59.22
2018-05-16T10:47:39.916Z,58.53
2018-05-16T10:48:39.983Z,57.05
2018-05-16T10:49:40.054Z,56.37
2018-05-16T10:50:40.125Z,56.28
2018-05-16T10:51:40.862Z,55.15
2018-05-16T10:52:40.263Z,53.53
2018-05-16T10:53:40.342Z,53.41
2018-05-16T10:54:40.409Z,52.92
2018-05-16T10:55:40.479Z,52.17
2018-05-16T10:56:40.549Z,53.43
2018-05-16T10:57:40.621Z,53.79
2018-05-16T10:58:40.695Z,55.19
2018-05-16T10:59:40.765Z,56.51
2018-05-16T11:00:40.839Z,57.05
2018-05-16T11:01:40.911Z,57.48
2018-05-16T11:02:40.981Z,60.48
2018-05-16T11:03:41.054Z,61.64
2018-05-16T11:04:41.126Z,60.41
2018-05-16T11:05:41.198Z,59.52
2018-05-16T11:06:41.270Z,60.26
2018-05-16T11:07:41.342Z,59.42
2018-05-16T11:08:41.418Z,60.06
2018-05-16T11:09:41.487Z,60.64
2018-05-16T11:10:41.559Z,61.77
2018-05-16T11:11:41.628Z,62.15
2018-05-16T11:12:41.695Z,62.06
2018-05-16T11:13:41.765Z,61.41
2018-05-16T11:14:41.836Z,59.64
2018-05-16T11:15:41.906Z,58.35
2018-05-16T11:16:41.974Z,55.70
2018-05-16T11:17:42.742Z,55.24
2018-05-16T11:18:42.119Z,53.79
2018-05-16T11:19:42.184Z,54.37
2018-05-16T11:20:42.254Z,54.49
2018-05-16T11:21:42.327Z,53.33
2018-05-16T11:22:42.395Z,53.29
2018-05-16T11:23:43.008Z,52.61
2018-05-16T11:24:42.537Z,53.00
2018-05-16T11:25:42.610Z,52.51
2018-05-16T11:26:42.686Z,53.41
2018-05-16T11:27:42.770Z,53.09
2018-05-16T11:28:42.824Z,51.37
2018-05-16T11:29:42.908Z,53.23
2018-05-16T11:30:42.969Z,51.86
2018-05-16T11:31:43.041Z,51.35
2018-05-16T11:32:43.687Z,50.65
2018-05-16T11:33:43.191Z,52.17
2018-05-16T11:34:43.262Z,52.89
2018-05-16T11:35:43.339Z,54.08
2018-05-16T11:36:43.498Z,53.79
2018-05-16T11:37:43.482Z,54.30
2018-05-16T11:38:43.554Z,53.41
2018-05-16T11:39:44.289Z,54.66
2018-05-16T11:40:43.701Z,54.73
2018-05-16T11:41:44.414Z,54.85
2018-05-16T11:42:43.848Z,54.91
2018-05-16T11:43:43.922Z,52.66
2018-05-16T11:44:44.679Z,52.39
2018-05-16T11:45:44.069Z,52.31
2018-05-16T11:46:44.144Z,54.19
2018-05-16T11:47:44.220Z,55.55
2018-05-16T11:48:44.310Z,56.05
2018-05-16T11:49:44.365Z,53.69
2018-05-16T11:50:44.439Z,52.10
2018-05-16T11:51:44.514Z,51.90
2018-05-16T11:52:44.583Z,51.16
2018-05-16T11:53:44.667Z,51.52
2018-05-16T11:54:44.732Z,51.10
2018-05-16T11:55:44.806Z,53.02
2018-05-16T11:56:44.877Z,52.95
2018-05-16T11:57:44.950Z,52.66
2018-05-16T11:58:45.026Z,53.33
2018-05-16T11:59:45.102Z,52.56
2018-05-16T12:00:45.172Z,53.23
2018-05-16T12:01:45.250Z,53.63
2018-05-16T12:02:45.398Z,52.68
2018-05-16T12:03:45.392Z,51.06
2018-05-16T12:04:45.467Z,51.01
2018-05-16T12:05:45.536Z,51.42
2018-05-16T12:06:45.609Z,51.25
2018-05-16T12:07:45.680Z,49.32
2018-05-16T12:08:45.757Z,50.09
2018-05-16T12:09:45.827Z,51.32
2018-05-16T12:10:45.899Z,53.31
2018-05-16T12:11:45.971Z,53.79
2018-05-16T12:12:46.044Z,53.86
2018-05-16T12:13:46.118Z,55.21
2018-05-16T12:14:46.247Z,54.53
2018-05-16T12:15:46.262Z,55.19
2018-05-16T12:16:46.334Z,54.37
2018-05-16T12:17:46.407Z,52.56
2018-05-16T12:18:46.478Z,50.79
2018-05-16T12:19:46.551Z,52.22
2018-05-16T12:20:46.702Z,50.92
2018-05-16T12:21:46.716Z,51.37
2018-05-16T12:22:46.769Z,50.84
2018-05-16T12:23:46.847Z,50.96
2018-05-16T12:24:46.911Z,51.42
2018-05-16T12:25:47.000Z,52.00
2018-05-16T12:26:47.055Z,51.72
2018-05-16T12:27:47.127Z,51.37
2018-05-16T12:28:47.209Z,51.30
2018-05-16T12:29:47.286Z,51.95
2018-05-16T12:30:47.345Z,51.78
2018-05-16T12:31:47.417Z,50.62
2018-05-16T12:32:47.487Z,51.15
2018-05-16T12:33:47.563Z,51.13
2018-05-16T12:34:47.632Z,50.70
2018-05-16T12:35:47.705Z,48.57
2018-05-16T12:36:47.775Z,48.03
2018-05-16T12:37:47.848Z,48.66
2018-05-16T12:38:47.921Z,50.70
2018-05-16T12:39:47.993Z,49.85
2018-05-16T12:40:48.065Z,50.43
2018-05-16T12:41:48.138Z,51.73
2018-05-16T12:42:48.211Z,52.22
2018-05-16T12:43:48.282Z,52.31
2018-05-16T12:44:48.355Z,52.70
2018-05-16T12:45:48.425Z,53.09
2018-05-16T12:46:48.499Z,52.44
2018-05-16T12:47:48.575Z,50.33
2018-05-16T12:48:48.645Z,49.85
2018-05-16T12:49:48.713Z,51.10
2018-05-16T12:50:49.314Z,50.82
2018-05-16T12:51:48.858Z,50.84
2018-05-16T12:52:48.937Z,48.93
2018-05-16T12:53:49.002Z,48.97